createdAt,value
2018-07-31T00:00:22.341Z,27.40
2018-07-31T00:01:24.618Z,27.40
2018-07-31T00:02:26.921Z,27.40
2018-07-31T00:03:29.217Z,27.40
2018-07-31T00:04:31.521Z,27.40
2018-07-31T00:05:33.825Z,27.40
2018-07-31T00:06:36.129Z,27.40
2018-07-31T00:07:38.459Z,27.40
2018-07-31T00:08:40.807Z,27.40
2018-07-31T00:09:43.109Z,27.40
2018-07-31T00:10:45.421Z,27.30
2018-07-31T00:11:47.715Z,27.30
2018-07-31T00:13:52.738Z,27.30
2018-07-31T00:14:55.026Z,27.30
2018-07-31T00:15:57.342Z,27.30
2018-07-31T00:16:59.616Z,27.30
2018-07-31T00:18:01.929Z,27.30
2018-07-31T00:19:04.521Z,27.30
2018-07-31T00:20:06.985Z,27.30
2018-07-31T00:21:09.265Z,27.30
2018-07-31T00:22:11.546Z,27.20
2018-07-31T00:23:13.874Z,27.40
2018-07-31T00:24:16.143Z,27.30
2018-07-31T00:25:18.447Z,27.20
2018-07-31T00:26:20.770Z,27.30
2018-07-31T00:27:23.051Z,27.20
2018-07-31T00:28:25.358Z,27.10
2018-07-31T00:29:27.646Z,27.30
2018-07-31T00:30:29.930Z,27.30
2018-07-31T00:32:34.518Z,27.20
2018-07-31T00:33:36.859Z,27.20
2018-07-31T00:34:39.141Z,27.20
2018-07-31T00:35:41.418Z,27.10
2018-07-31T00:36:43.692Z,27.10
2018-07-31T00:37:45.978Z,27.00
2018-07-31T00:38:48.255Z,27.10
2018-07-31T00:39:50.526Z,27.10
2018-07-31T00:40:52.953Z,27.00
2018-07-31T00:42:57.578Z,27.00
2018-07-31T00:43:59.889Z,26.90
2018-07-31T00:45:02.202Z,27.00
2018-07-31T00:46:04.653Z,27.00
2018-07-31T00:47:06.916Z,27.00
2018-07-31T00:48:09.275Z,27.00
2018-07-31T00:49:11.605Z,27.00
2018-07-31T00:50:13.869Z,27.00
2018-07-31T00:51:16.137Z,27.00
2018-07-31T00:52:18.422Z,27.00
2018-07-31T00:53:20.744Z,26.90
2018-07-31T00:54:23.019Z,26.90
2018-07-31T00:55:25.321Z,26.90
2018-07-31T00:56:27.610Z,26.90
2018-07-31T00:57:29.874Z,26.90
2018-07-31T00:58:32.136Z,26.90
2018-07-31T00:59:34.483Z,26.90
2018-07-31T01:00:36.825Z,26.80
2018-07-31T01:01:39.163Z,26.90
2018-07-31T01:02:41.448Z,26.90
2018-07-31T01:03:43.729Z,26.80
2018-07-31T01:04:46.094Z,26.80
2018-07-31T01:05:48.435Z,26.80
2018-07-31T01:06:50.767Z,26.70
2018-07-31T01:08:55.505Z,26.70
2018-07-31T01:11:00.088Z,26.70
2018-07-31T01:12:02.374Z,26.70
2018-07-31T01:13:04.811Z,26.70
2018-07-31T01:14:08.224Z,26.70
2018-07-31T01:16:12.814Z,26.60
2018-07-31T01:17:15.074Z,26.60
2018-07-31T01:18:17.427Z,26.60
2018-07-31T01:19:19.746Z,26.50
2018-07-31T01:20:22.045Z,26.60
2018-07-31T01:21:24.356Z,26.50
2018-07-31T01:22:26.664Z,26.50
2018-07-31T01:23:28.975Z,26.50
2018-07-31T01:24:31.336Z,26.50
2018-07-31T01:25:33.601Z,26.50
2018-07-31T01:27:38.187Z,26.50
2018-07-31T01:28:40.454Z,26.50
2018-07-31T01:29:42.730Z,26.50
2018-07-31T01:30:45.062Z,26.40
2018-07-31T01:31:47.333Z,26.40
2018-07-31T01:32:49.666Z,26.40
2018-07-31T01:33:52.018Z,26.30
2018-07-31T01:34:54.266Z,26.30
2018-07-31T01:35:56.559Z,26.20
2018-07-31T01:36:58.832Z,26.30
2018-07-31T01:38:01.140Z,26.20
2018-07-31T01:39:06.577Z,26.20
2018-07-31T01:40:08.858Z,26.20
2018-07-31T01:41:11.117Z,26.30
2018-07-31T01:42:13.369Z,26.20
2018-07-31T01:43:15.654Z,26.20
2018-07-31T01:44:17.940Z,26.20
2018-07-31T01:45:20.241Z,26.20
2018-07-31T01:46:22.557Z,26.20
2018-07-31T01:47:24.838Z,26.20
2018-07-31T01:48:27.127Z,26.10
2018-07-31T01:49:29.398Z,26.10
2018-07-31T01:50:31.661Z,26.10
2018-07-31T01:51:33.929Z,26.10
2018-07-31T01:52:36.222Z,26.10
2018-07-31T01:53:38.517Z,26.10
2018-07-31T01:54:40.814Z,26.00
2018-07-31T01:55:43.084Z,26.00
2018-07-31T01:56:45.342Z,26.00
2018-07-31T01:57:47.626Z,26.00
2018-07-31T01:58:49.937Z,26.00
2018-07-31T01:59:52.197Z,26.00
2018-07-31T02:00:54.492Z,26.00
2018-07-31T02:01:56.766Z,26.00
2018-07-31T02:02:59.070Z,26.00
2018-07-31T02:04:01.355Z,26.00
2018-07-31T02:05:03.753Z,26.10
2018-07-31T02:06:06.044Z,25.90
2018-07-31T02:07:08.341Z,26.00
2018-07-31T02:08:10.621Z,25.90
2018-07-31T02:09:12.926Z,25.90
2018-07-31T02:10:15.244Z,25.90
2018-07-31T02:11:17.533Z,25.90
2018-07-31T02:13:22.161Z,25.90
2018-07-31T02:14:24.460Z,25.90
2018-07-31T02:15:26.773Z,25.90
2018-07-31T02:16:29.049Z,25.90
2018-07-31T02:18:33.642Z,25.90
2018-07-31T02:19:35.925Z,25.80
2018-07-31T02:20:38.780Z,25.80
2018-07-31T02:21:41.073Z,25.80
2018-07-31T02:22:43.333Z,25.80
2018-07-31T02:23:45.622Z,25.80
2018-07-31T02:24:47.865Z,25.80
2018-07-31T02:25:50.165Z,25.80
2018-07-31T02:26:52.459Z,25.90
2018-07-31T02:27:54.781Z,25.70
2018-07-31T02:28:57.070Z,25.70
2018-07-31T02:30:05.048Z,25.70
2018-07-31T02:31:07.321Z,25.70
2018-07-31T02:32:09.619Z,25.70
2018-07-31T02:33:11.892Z,25.60
2018-07-31T02:34:14.196Z,25.60
2018-07-31T02:35:16.645Z,25.60
2018-07-31T02:36:18.937Z,25.60
2018-07-31T02:37:21.241Z,25.60
2018-07-31T02:38:23.530Z,25.50
2018-07-31T02:39:25.822Z,25.50
2018-07-31T02:40:28.082Z,25.50
2018-07-31T02:41:30.335Z,25.50
2018-07-31T02:42:32.617Z,25.50
2018-07-31T02:43:34.916Z,25.50
2018-07-31T02:44:37.171Z,25.50
2018-07-31T02:45:39.446Z,25.40
2018-07-31T02:46:41.730Z,25.40
2018-07-31T02:47:44.611Z,25.40
2018-07-31T02:48:46.920Z,25.40
2018-07-31T02:49:49.158Z,25.50
2018-07-31T02:50:51.463Z,25.40
2018-07-31T02:51:53.748Z,25.50
2018-07-31T02:52:56.009Z,25.40
2018-07-31T02:53:58.282Z,25.40
2018-07-31T02:55:00.549Z,25.40
2018-07-31T02:56:02.820Z,25.40
2018-07-31T02:57:05.143Z,25.40
2018-07-31T02:58:07.422Z,25.30
2018-07-31T02:59:09.722Z,25.30
2018-07-31T03:00:11.994Z,25.30
2018-07-31T03:01:14.248Z,25.30
2018-07-31T03:03:18.788Z,25.30
2018-07-31T03:04:21.026Z,25.30
2018-07-31T03:05:23.273Z,25.40
2018-07-31T03:06:25.533Z,25.30
2018-07-31T03:07:27.786Z,25.30
2018-07-31T03:08:30.042Z,25.40
2018-07-31T03:09:32.304Z,25.30
2018-07-31T03:11:36.832Z,25.30
2018-07-31T03:12:39.122Z,25.40
2018-07-31T03:13:41.388Z,25.30
2018-07-31T03:14:43.656Z,25.30
2018-07-31T03:15:45.926Z,25.30
2018-07-31T03:16:48.171Z,25.30
2018-07-31T03:17:50.407Z,25.30
2018-07-31T03:18:52.642Z,25.40
2018-07-31T03:20:57.190Z,25.30
2018-07-31T03:21:59.474Z,25.30
2018-07-31T03:23:01.746Z,25.30
2018-07-31T03:24:03.985Z,25.30
2018-07-31T03:25:06.267Z,25.30
2018-07-31T03:26:08.533Z,25.30
2018-07-31T03:27:10.776Z,25.30
2018-07-31T03:28:13.065Z,25.30
2018-07-31T03:29:15.333Z,25.30
2018-07-31T03:32:22.190Z,25.20
2018-07-31T03:33:24.467Z,25.20
2018-07-31T03:35:29.015Z,25.20
2018-07-31T03:36:31.258Z,25.20
2018-07-31T03:37:33.485Z,25.20
2018-07-31T03:38:35.729Z,25.20
2018-07-31T03:39:37.953Z,25.20
2018-07-31T03:40:40.429Z,25.20
2018-07-31T03:41:42.662Z,25.20
2018-07-31T03:42:44.869Z,25.20
2018-07-31T03:43:47.126Z,25.20
2018-07-31T03:44:49.421Z,25.20
2018-07-31T03:45:51.726Z,25.20
2018-07-31T03:46:54.011Z,25.20
2018-07-31T03:47:56.238Z,25.10
2018-07-31T03:48:58.485Z,25.10
2018-07-31T03:50:00.798Z,25.10
2018-07-31T03:51:03.051Z,25.10
2018-07-31T03:52:05.558Z,25.10
2018-07-31T03:53:07.849Z,25.10
2018-07-31T03:54:10.109Z,25.10
2018-07-31T03:55:12.386Z,25.10
2018-07-31T03:56:14.652Z,25.10
2018-07-31T03:57:16.866Z,25.10
2018-07-31T03:58:19.121Z,25.10
2018-07-31T03:59:21.391Z,25.10
2018-07-31T04:00:23.669Z,25.00
2018-07-31T04:01:25.938Z,25.00
2018-07-31T04:02:28.165Z,25.00
2018-07-31T04:04:32.748Z,25.00
2018-07-31T04:05:35.132Z,25.00
2018-07-31T04:06:37.267Z,25.00
2018-07-31T04:07:39.518Z,25.10
2018-07-31T04:08:41.868Z,25.00
2018-07-31T04:09:44.092Z,25.00
2018-07-31T04:11:48.642Z,25.00
2018-07-31T04:12:50.891Z,25.00
2018-07-31T04:13:53.141Z,25.00
2018-07-31T04:14:55.417Z,25.00
2018-07-31T04:15:57.653Z,25.00
2018-07-31T04:16:59.991Z,25.00
2018-07-31T04:18:02.220Z,24.80
2018-07-31T04:19:04.438Z,24.90
2018-07-31T04:20:06.716Z,24.90
2018-07-31T04:22:11.261Z,24.90
2018-07-31T04:23:13.514Z,24.90
2018-07-31T04:24:15.933Z,24.90
2018-07-31T04:26:20.504Z,24.90
2018-07-31T04:27:22.771Z,25.00
2018-07-31T04:28:25.080Z,24.90
2018-07-31T04:30:29.668Z,24.80
2018-07-31T04:31:31.959Z,24.80
2018-07-31T04:32:34.266Z,24.80
2018-07-31T04:33:36.543Z,24.70
2018-07-31T04:34:38.831Z,24.70
2018-07-31T04:35:41.103Z,24.70
2018-07-31T04:36:43.362Z,24.70
2018-07-31T04:37:45.627Z,24.70
2018-07-31T04:38:47.961Z,24.80
2018-07-31T04:39:50.259Z,24.70
2018-07-31T04:40:52.542Z,24.80
2018-07-31T04:41:54.791Z,24.90
2018-07-31T04:42:57.051Z,24.70
2018-07-31T04:43:59.331Z,24.80
2018-07-31T04:45:01.663Z,24.80
2018-07-31T04:46:04.138Z,24.90
2018-07-31T04:47:06.437Z,24.90
2018-07-31T04:48:08.720Z,24.90
2018-07-31T04:50:13.314Z,24.90
2018-07-31T04:51:15.577Z,24.90
2018-07-31T04:52:17.857Z,24.90
2018-07-31T04:54:22.449Z,24.90
2018-07-31T04:55:24.746Z,24.80
2018-07-31T04:56:27.045Z,24.90
2018-07-31T04:57:29.373Z,24.80
2018-07-31T04:58:31.656Z,24.80
2018-07-31T04:59:33.973Z,24.80
2018-07-31T05:00:36.257Z,24.80
2018-07-31T05:01:38.533Z,24.70
2018-07-31T05:02:40.827Z,24.70
2018-07-31T05:03:43.103Z,24.80
2018-07-31T05:04:45.362Z,24.80
2018-07-31T05:05:47.630Z,24.80
2018-07-31T05:06:49.905Z,24.80
2018-07-31T05:07:52.181Z,24.70
2018-07-31T05:08:54.450Z,24.70
2018-07-31T05:10:59.024Z,24.80
2018-07-31T05:12:01.286Z,24.80
2018-07-31T05:13:03.554Z,24.80
2018-07-31T05:14:06.344Z,24.80
2018-07-31T05:15:08.700Z,24.80
2018-07-31T05:16:10.962Z,24.90
2018-07-31T05:17:13.259Z,24.90
2018-07-31T05:18:15.581Z,24.90
2018-07-31T05:19:17.837Z,25.00
2018-07-31T05:20:20.104Z,24.90
2018-07-31T05:22:24.694Z,24.90
2018-07-31T05:23:27.003Z,24.90
2018-07-31T05:24:29.281Z,24.90
2018-07-31T05:25:31.644Z,24.90
2018-07-31T05:26:33.928Z,24.90
2018-07-31T05:27:36.189Z,24.90
2018-07-31T05:28:38.482Z,24.90
2018-07-31T05:29:40.738Z,24.90
2018-07-31T05:30:43.011Z,24.90
2018-07-31T05:31:45.296Z,24.90
2018-07-31T05:32:47.610Z,24.70
2018-07-31T05:33:49.874Z,24.90
2018-07-31T05:34:52.170Z,24.90
2018-07-31T05:35:54.440Z,24.90
2018-07-31T05:36:56.716Z,24.90
2018-07-31T05:37:58.982Z,24.90
2018-07-31T05:39:01.250Z,24.90
2018-07-31T05:40:03.883Z,24.90
2018-07-31T05:41:06.177Z,25.10
2018-07-31T05:42:08.461Z,25.00
2018-07-31T05:43:10.743Z,25.10
2018-07-31T05:44:13.002Z,25.10
2018-07-31T05:45:15.263Z,25.20
2018-07-31T05:47:19.906Z,25.30
2018-07-31T05:48:22.207Z,25.30
2018-07-31T05:49:24.693Z,25.30
2018-07-31T05:50:26.954Z,25.40
2018-07-31T05:51:29.253Z,25.40
2018-07-31T05:52:31.528Z,25.50
2018-07-31T05:53:33.837Z,25.60
2018-07-31T05:54:36.150Z,25.70
2018-07-31T05:55:38.572Z,25.70
2018-07-31T05:56:40.863Z,25.70
2018-07-31T05:57:43.155Z,25.80
2018-07-31T05:58:45.441Z,25.90
2018-07-31T05:59:47.765Z,25.90
2018-07-31T06:00:50.055Z,26.10
2018-07-31T06:01:52.358Z,26.30
2018-07-31T06:02:54.649Z,26.30
2018-07-31T06:03:56.952Z,26.40
2018-07-31T06:04:59.231Z,26.50
2018-07-31T06:07:03.867Z,26.70
2018-07-31T06:08:06.146Z,26.70
2018-07-31T06:09:08.867Z,26.80
2018-07-31T06:10:11.170Z,26.80
2018-07-31T06:11:13.465Z,26.80
2018-07-31T06:12:15.731Z,26.80
2018-07-31T06:13:18.034Z,26.90
2018-07-31T06:14:20.303Z,26.90
2018-07-31T06:15:22.821Z,27.00
2018-07-31T06:16:25.099Z,27.10
2018-07-31T06:17:31.448Z,27.20
2018-07-31T06:18:33.717Z,27.20
2018-07-31T06:19:35.987Z,27.30
2018-07-31T06:21:40.573Z,27.30
2018-07-31T06:22:43.805Z,27.40
2018-07-31T06:23:46.082Z,27.50
2018-07-31T06:24:48.355Z,27.60
2018-07-31T06:25:50.670Z,27.70
2018-07-31T06:26:55.254Z,27.60
2018-07-31T06:28:01.290Z,27.70
2018-07-31T06:29:03.607Z,27.70
2018-07-31T06:30:08.215Z,27.70
2018-07-31T06:31:10.529Z,27.70
2018-07-31T06:32:12.842Z,27.80
2018-07-31T06:33:15.154Z,27.80
2018-07-31T06:34:17.480Z,27.80
2018-07-31T06:35:25.461Z,27.80
2018-07-31T06:36:27.742Z,27.90
2018-07-31T06:37:30.027Z,27.90
2018-07-31T06:38:32.318Z,27.90
2018-07-31T06:39:34.618Z,27.90
2018-07-31T06:40:36.862Z,28.00
2018-07-31T06:41:39.202Z,28.00
2018-07-31T06:42:41.481Z,28.00
2018-07-31T06:43:43.813Z,27.90
2018-07-31T06:44:46.082Z,27.90
2018-07-31T06:45:48.355Z,27.90
2018-07-31T06:46:50.672Z,27.80
2018-07-31T06:47:52.915Z,27.80
2018-07-31T06:48:55.190Z,27.70
2018-07-31T06:49:57.477Z,27.70
2018-07-31T06:50:59.798Z,27.70
2018-07-31T06:52:02.076Z,27.70
2018-07-31T06:53:04.385Z,27.70
2018-07-31T06:54:06.685Z,27.60
2018-07-31T06:55:08.930Z,27.60
2018-07-31T06:56:11.179Z,27.60
2018-07-31T06:57:13.438Z,27.50
2018-07-31T06:58:15.767Z,27.50
2018-07-31T06:59:18.060Z,27.50
2018-07-31T07:01:22.645Z,27.40
2018-07-31T07:02:25.006Z,27.40
2018-07-31T07:03:27.261Z,27.40
2018-07-31T07:04:29.548Z,27.40
2018-07-31T07:06:34.056Z,27.40
2018-07-31T07:07:36.298Z,27.40
2018-07-31T07:08:38.566Z,27.40
2018-07-31T07:09:40.835Z,27.40
2018-07-31T07:10:43.108Z,27.40
2018-07-31T07:11:45.367Z,27.50
2018-07-31T07:12:47.628Z,27.50
2018-07-31T07:13:50.002Z,27.50
2018-07-31T07:14:52.280Z,27.50
2018-07-31T07:15:54.611Z,27.60
2018-07-31T07:17:59.141Z,27.60
2018-07-31T07:19:01.438Z,27.60
2018-07-31T07:20:03.910Z,27.70
2018-07-31T07:21:06.530Z,27.70
2018-07-31T07:22:08.816Z,27.70
2018-07-31T07:23:11.052Z,27.70
2018-07-31T07:24:13.284Z,27.90
2018-07-31T07:25:22.368Z,27.80
2018-07-31T07:26:24.901Z,27.90
2018-07-31T07:27:27.173Z,28.00
2018-07-31T07:28:29.428Z,28.00
2018-07-31T07:29:31.753Z,28.10
2018-07-31T07:30:34.085Z,28.10
2018-07-31T07:31:36.483Z,28.20
2018-07-31T07:32:38.742Z,28.20
2018-07-31T07:33:41.065Z,28.30
2018-07-31T07:34:43.306Z,28.30
2018-07-31T07:35:45.534Z,28.40
2018-07-31T07:36:47.817Z,28.40
2018-07-31T07:37:50.069Z,28.40
2018-07-31T07:38:52.332Z,28.40
2018-07-31T07:39:54.575Z,28.40
2018-07-31T07:40:56.813Z,28.40
2018-07-31T07:41:59.061Z,28.50
2018-07-31T07:43:01.298Z,28.40
2018-07-31T07:44:03.597Z,28.40
2018-07-31T07:45:05.910Z,28.40
2018-07-31T07:46:08.212Z,28.40
2018-07-31T07:47:10.989Z,28.50
2018-07-31T07:48:13.227Z,28.50
2018-07-31T07:49:15.509Z,28.60
2018-07-31T07:50:17.799Z,28.60
2018-07-31T07:52:22.370Z,28.60
2018-07-31T07:53:24.598Z,28.70
2018-07-31T07:54:26.846Z,28.70
2018-07-31T07:55:29.122Z,28.70
2018-07-31T07:56:31.378Z,28.80
2018-07-31T07:57:33.662Z,28.80
2018-07-31T07:58:35.903Z,28.90
2018-07-31T07:59:38.227Z,28.90
2018-07-31T08:00:40.470Z,28.90
2018-07-31T08:01:42.717Z,29.00
2018-07-31T08:02:44.988Z,28.90
2018-07-31T08:03:47.302Z,28.90
2018-07-31T08:04:49.613Z,28.90
2018-07-31T08:05:51.930Z,29.00
2018-07-31T08:06:54.221Z,29.00
2018-07-31T08:07:56.497Z,29.00
2018-07-31T08:08:58.747Z,29.10
2018-07-31T08:10:01.042Z,29.10
2018-07-31T08:11:03.298Z,29.10
2018-07-31T08:12:05.863Z,29.10
2018-07-31T08:14:10.581Z,29.20
2018-07-31T08:15:12.883Z,29.20
2018-07-31T08:16:15.199Z,29.30
2018-07-31T08:17:17.468Z,29.20
2018-07-31T08:18:20.057Z,29.30
2018-07-31T08:19:22.333Z,29.30
2018-07-31T08:20:24.636Z,29.30
2018-07-31T08:21:26.880Z,29.40
2018-07-31T08:22:29.185Z,29.40
2018-07-31T08:23:31.474Z,29.40
2018-07-31T08:24:33.763Z,29.40
2018-07-31T08:25:36.024Z,29.50
2018-07-31T08:26:38.320Z,29.50
2018-07-31T08:28:42.929Z,29.70
2018-07-31T08:29:45.257Z,29.70
2018-07-31T08:30:47.544Z,29.80
2018-07-31T08:31:49.859Z,29.80
2018-07-31T08:32:52.159Z,29.90
2018-07-31T08:33:54.431Z,29.90
2018-07-31T08:34:56.708Z,30.00
2018-07-31T08:35:58.958Z,30.00
2018-07-31T08:37:01.227Z,30.10
2018-07-31T08:38:03.505Z,30.10
2018-07-31T08:39:07.138Z,30.10
2018-07-31T08:40:09.415Z,30.10
2018-07-31T08:41:11.698Z,30.10
2018-07-31T08:42:13.978Z,30.10
2018-07-31T08:43:16.250Z,30.10
2018-07-31T08:44:18.505Z,30.10
2018-07-31T08:45:20.765Z,30.10
2018-07-31T08:46:23.393Z,30.20
2018-07-31T08:47:25.653Z,30.20
2018-07-31T08:48:27.981Z,30.30
2018-07-31T08:49:30.212Z,30.30
2018-07-31T08:50:32.509Z,30.30
2018-07-31T08:51:34.781Z,30.40
2018-07-31T08:52:37.070Z,30.40
2018-07-31T08:53:39.293Z,30.40
2018-07-31T08:54:41.529Z,30.40
2018-07-31T08:55:43.833Z,30.40
2018-07-31T08:56:46.153Z,30.40
2018-07-31T08:57:48.402Z,30.40
2018-07-31T08:58:50.655Z,30.40
2018-07-31T08:59:52.950Z,30.40
2018-07-31T09:00:55.257Z,30.50
2018-07-31T09:01:57.656Z,30.50
2018-07-31T09:02:59.985Z,30.60
2018-07-31T09:04:02.262Z,30.60
2018-07-31T09:05:04.728Z,30.60
2018-07-31T09:06:07.021Z,30.60
2018-07-31T09:07:09.318Z,30.70
2018-07-31T09:08:11.574Z,30.80
2018-07-31T09:09:13.834Z,30.90
2018-07-31T09:10:16.124Z,30.80
2018-07-31T09:11:18.386Z,30.90
2018-07-31T09:12:20.660Z,31.00
2018-07-31T09:13:22.890Z,31.00
2018-07-31T09:14:25.143Z,31.10
2018-07-31T09:16:29.773Z,31.10
2018-07-31T09:17:32.037Z,31.10
2018-07-31T09:18:34.958Z,31.10
2018-07-31T09:19:37.226Z,31.10
2018-07-31T09:20:39.763Z,31.10
2018-07-31T09:21:41.982Z,31.10
2018-07-31T09:22:44.220Z,31.20
2018-07-31T09:23:46.539Z,31.20
2018-07-31T09:24:48.829Z,31.30
2018-07-31T09:25:51.077Z,31.30
2018-07-31T09:26:53.298Z,31.40
2018-07-31T09:27:55.517Z,31.50
2018-07-31T09:28:57.754Z,31.50
2018-07-31T09:29:59.994Z,31.60
2018-07-31T09:31:08.235Z,31.60
2018-07-31T09:32:10.916Z,31.60
2018-07-31T09:33:13.247Z,31.70
2018-07-31T09:34:15.478Z,31.70
2018-07-31T09:35:17.774Z,31.80
2018-07-31T09:36:20.073Z,31.80
2018-07-31T09:37:22.370Z,31.80
2018-07-31T09:38:24.614Z,31.90
2018-07-31T09:39:26.887Z,31.90
2018-07-31T09:40:29.157Z,31.90
2018-07-31T09:41:31.409Z,32.00
2018-07-31T09:42:33.645Z,32.00
2018-07-31T09:43:35.858Z,32.00
2018-07-31T09:44:38.095Z,32.00
2018-07-31T09:45:40.315Z,32.10
2018-07-31T09:46:42.542Z,32.10
2018-07-31T09:47:44.844Z,32.20
2018-07-31T09:48:47.082Z,32.20
2018-07-31T09:49:49.341Z,32.20
2018-07-31T09:50:51.594Z,32.20
2018-07-31T09:51:53.881Z,32.20
2018-07-31T09:52:56.116Z,32.20
2018-07-31T09:53:58.369Z,32.20
2018-07-31T09:55:00.638Z,32.20
2018-07-31T09:56:02.907Z,32.20
2018-07-31T09:57:05.206Z,32.30
2018-07-31T09:58:07.475Z,32.30
2018-07-31T09:59:09.749Z,32.30
2018-07-31T10:00:12.868Z,32.40
2018-07-31T10:01:18.344Z,32.30
2018-07-31T10:02:20.588Z,32.30
2018-07-31T10:03:22.854Z,32.40
2018-07-31T10:04:25.058Z,32.40
2018-07-31T10:05:27.344Z,32.50
2018-07-31T10:06:29.650Z,32.50
2018-07-31T10:08:34.126Z,32.60
2018-07-31T10:09:36.386Z,32.70
2018-07-31T10:10:38.661Z,32.70
2018-07-31T10:11:40.921Z,32.60
2018-07-31T10:12:43.106Z,32.70
2018-07-31T10:13:45.364Z,32.70
2018-07-31T10:14:47.620Z,32.70
2018-07-31T10:15:50.058Z,32.70
2018-07-31T10:17:54.641Z,32.80
2018-07-31T10:18:56.862Z,32.80
2018-07-31T10:19:59.077Z,32.90
2018-07-31T10:21:01.364Z,32.90
2018-07-31T10:22:03.603Z,32.90
2018-07-31T10:24:08.123Z,33.00
2018-07-31T10:25:10.353Z,33.00
2018-07-31T10:26:12.566Z,33.00
2018-07-31T10:27:14.815Z,33.10
2018-07-31T10:29:19.338Z,33.20
2018-07-31T10:30:21.594Z,33.20
2018-07-31T10:32:26.133Z,33.30
2018-07-31T10:33:28.365Z,33.40
2018-07-31T10:34:30.655Z,33.40
2018-07-31T10:35:32.941Z,33.40
2018-07-31T10:36:35.218Z,33.40
2018-07-31T10:37:37.669Z,33.40
2018-07-31T10:38:39.778Z,33.40
2018-07-31T10:39:42.002Z,33.50
2018-07-31T10:40:44.244Z,33.50
2018-07-31T10:41:46.469Z,33.50
2018-07-31T10:42:48.689Z,33.60
2018-07-31T10:43:51.387Z,33.60
2018-07-31T10:44:53.586Z,33.70
2018-07-31T10:45:55.842Z,33.70
2018-07-31T10:46:58.110Z,33.70
2018-07-31T10:48:00.397Z,33.70
2018-07-31T10:49:02.646Z,33.70
2018-07-31T10:50:04.890Z,33.70
2018-07-31T10:51:07.187Z,33.70
2018-07-31T10:52:09.417Z,33.80
2018-07-31T10:53:11.694Z,33.80
2018-07-31T10:54:13.921Z,33.80
2018-07-31T10:55:16.190Z,33.90
2018-07-31T10:56:18.434Z,33.90
2018-07-31T10:57:20.668Z,33.90
2018-07-31T10:58:22.927Z,33.90
2018-07-31T10:59:25.129Z,34.00
2018-07-31T11:00:27.439Z,34.00
2018-07-31T11:01:29.624Z,34.00
2018-07-31T11:02:31.902Z,34.10
2018-07-31T11:03:34.180Z,34.10
2018-07-31T11:04:36.418Z,34.20
2018-07-31T11:05:38.663Z,34.20
2018-07-31T11:06:41.149Z,34.20
2018-07-31T11:07:43.473Z,34.20
2018-07-31T11:08:45.729Z,34.20
2018-07-31T11:09:47.952Z,34.30
2018-07-31T11:10:50.220Z,34.30
2018-07-31T11:11:52.473Z,34.40
2018-07-31T11:12:54.762Z,34.40
2018-07-31T11:13:57.041Z,34.40
2018-07-31T11:14:59.285Z,34.50
2018-07-31T11:16:01.573Z,34.40
2018-07-31T11:17:03.838Z,34.60
2018-07-31T11:18:06.122Z,34.50
2018-07-31T11:19:08.429Z,34.50
2018-07-31T11:20:10.666Z,34.50
2018-07-31T11:21:13.054Z,34.60
2018-07-31T11:22:15.299Z,34.60
2018-07-31T11:23:17.565Z,34.70
2018-07-31T11:24:19.806Z,34.60
2018-07-31T11:25:22.067Z,34.60
2018-07-31T11:26:24.331Z,34.60
2018-07-31T11:27:26.603Z,34.60
2018-07-31T11:29:31.159Z,34.70
2018-07-31T11:30:33.386Z,34.80
2018-07-31T11:32:37.962Z,34.90
2018-07-31T11:33:40.321Z,34.90
2018-07-31T11:34:42.597Z,35.00
2018-07-31T11:35:44.870Z,35.00
2018-07-31T11:36:47.179Z,35.10
2018-07-31T11:37:49.622Z,35.10
2018-07-31T11:39:54.138Z,35.20
2018-07-31T11:40:56.410Z,35.20
2018-07-31T11:41:58.625Z,35.20
2018-07-31T11:43:00.890Z,35.20
2018-07-31T11:44:03.328Z,35.20
2018-07-31T11:45:05.572Z,35.20
2018-07-31T11:46:07.884Z,35.30
2018-07-31T11:47:10.176Z,35.30
2018-07-31T11:48:12.469Z,35.40
2018-07-31T11:49:14.733Z,35.40
2018-07-31T11:50:17.065Z,35.40
2018-07-31T11:51:20.071Z,35.50
2018-07-31T11:52:22.381Z,35.50
2018-07-31T11:54:27.250Z,35.60
2018-07-31T11:55:29.550Z,35.70
2018-07-31T11:56:31.882Z,35.70
2018-07-31T11:57:34.233Z,35.70
2018-07-31T11:58:36.532Z,35.70
2018-07-31T11:59:38.865Z,35.70
2018-07-31T12:00:41.133Z,35.70
2018-07-31T12:01:43.467Z,35.70
2018-07-31T12:02:45.674Z,35.70
2018-07-31T12:03:47.931Z,35.80
2018-07-31T12:04:50.166Z,35.80
2018-07-31T12:05:52.471Z,35.80
2018-07-31T12:07:56.977Z,35.80
2018-07-31T12:08:59.359Z,35.80
2018-07-31T12:10:01.666Z,35.80
2018-07-31T12:12:06.207Z,35.90
2018-07-31T12:13:08.462Z,36.00
2018-07-31T12:14:10.822Z,36.00
2018-07-31T12:15:13.128Z,36.10
2018-07-31T12:16:15.446Z,36.10
2018-07-31T12:17:17.705Z,36.10
2018-07-31T12:18:20.007Z,36.10
2018-07-31T12:19:22.254Z,36.20
2018-07-31T12:20:25.702Z,36.20
2018-07-31T12:21:28.096Z,36.30
2018-07-31T12:22:30.410Z,36.30
2018-07-31T12:23:32.654Z,36.30
2018-07-31T12:24:34.905Z,36.40
2018-07-31T12:25:37.188Z,36.30
2018-07-31T12:26:39.470Z,36.40
2018-07-31T12:27:41.743Z,36.40
2018-07-31T12:28:44.031Z,36.30
2018-07-31T12:29:46.266Z,36.30
2018-07-31T12:30:48.478Z,36.40
2018-07-31T12:31:50.794Z,36.40
2018-07-31T12:32:53.070Z,36.40
2018-07-31T12:33:55.305Z,36.40
2018-07-31T12:34:57.566Z,36.40
2018-07-31T12:35:59.846Z,36.50
2018-07-31T12:37:02.128Z,36.50
2018-07-31T12:39:09.061Z,36.60
2018-07-31T12:40:11.321Z,36.70
2018-07-31T12:41:13.600Z,36.80
2018-07-31T12:42:15.838Z,36.80
2018-07-31T12:43:18.078Z,36.90
2018-07-31T12:44:20.370Z,36.90
2018-07-31T12:45:22.605Z,37.00
2018-07-31T12:46:24.883Z,37.10
2018-07-31T12:47:27.141Z,37.10
2018-07-31T12:48:29.476Z,37.10
2018-07-31T12:49:31.662Z,37.10
2018-07-31T12:50:33.921Z,37.10
2018-07-31T12:51:36.198Z,37.10
2018-07-31T12:52:38.418Z,37.10
2018-07-31T12:53:40.697Z,37.10
2018-07-31T12:54:42.950Z,37.20
2018-07-31T12:55:45.225Z,37.20
2018-07-31T12:56:47.486Z,37.30
2018-07-31T12:57:49.759Z,37.40
2018-07-31T12:58:51.994Z,37.50
2018-07-31T12:59:54.259Z,37.60
2018-07-31T13:00:56.495Z,37.60
2018-07-31T13:01:58.778Z,37.50
2018-07-31T13:03:01.041Z,37.50
2018-07-31T13:04:03.348Z,37.70
2018-07-31T13:05:05.859Z,37.60
2018-07-31T13:06:08.134Z,37.70
2018-07-31T13:07:10.411Z,37.60
2018-07-31T13:08:12.636Z,37.70
2018-07-31T13:09:14.901Z,37.80
2018-07-31T13:10:17.202Z,37.80
2018-07-31T13:11:19.483Z,37.90
2018-07-31T13:12:21.713Z,38.00
2018-07-31T13:13:23.943Z,38.10
2018-07-31T13:14:26.245Z,38.10
2018-07-31T13:15:28.518Z,38.10
2018-07-31T13:16:30.860Z,38.10
2018-07-31T13:17:33.991Z,38.10
2018-07-31T13:18:36.242Z,38.20
2018-07-31T13:19:38.502Z,38.20
2018-07-31T13:20:40.785Z,38.20
2018-07-31T13:21:43.045Z,38.30
2018-07-31T13:22:45.397Z,38.30
2018-07-31T13:23:47.632Z,38.30
2018-07-31T13:24:49.873Z,38.30
2018-07-31T13:26:54.406Z,38.50
2018-07-31T13:27:56.681Z,38.50
2018-07-31T13:28:58.918Z,38.60
2018-07-31T13:30:01.179Z,38.70
2018-07-31T13:31:03.418Z,38.70
2018-07-31T13:33:08.118Z,38.70
2018-07-31T13:34:10.386Z,38.60
2018-07-31T13:35:12.790Z,38.50
2018-07-31T13:36:15.075Z,38.50
2018-07-31T13:37:17.427Z,38.40
2018-07-31T13:38:19.613Z,38.40
2018-07-31T13:39:21.857Z,38.20
2018-07-31T13:40:24.082Z,38.20
2018-07-31T13:41:26.334Z,38.20
2018-07-31T13:42:28.631Z,38.20
2018-07-31T13:43:30.894Z,38.20
2018-07-31T13:44:33.143Z,38.30
2018-07-31T13:45:35.434Z,38.40
2018-07-31T13:46:37.685Z,38.50
2018-07-31T13:47:40.018Z,38.60
2018-07-31T13:48:42.278Z,38.60
2018-07-31T13:49:44.492Z,38.60
2018-07-31T13:50:46.767Z,38.70
2018-07-31T13:51:49.040Z,38.80
2018-07-31T13:52:51.310Z,38.80
2018-07-31T13:53:53.541Z,38.90
2018-07-31T13:55:58.119Z,39.00
2018-07-31T13:57:00.382Z,38.90
2018-07-31T13:58:02.682Z,38.90
2018-07-31T14:00:07.261Z,38.80
2018-07-31T14:01:09.573Z,38.90
2018-07-31T14:02:11.813Z,38.90
2018-07-31T14:03:14.087Z,38.80
2018-07-31T14:04:16.378Z,38.70
2018-07-31T14:05:18.615Z,38.70
2018-07-31T14:07:23.146Z,38.60
2018-07-31T14:08:25.397Z,38.60
2018-07-31T14:09:27.642Z,38.60
2018-07-31T14:10:29.928Z,38.60
2018-07-31T14:11:32.164Z,38.60
2018-07-31T14:13:36.682Z,38.50
2018-07-31T14:14:38.910Z,38.30
2018-07-31T14:15:41.191Z,38.20
2018-07-31T14:16:43.466Z,38.10